sensor_id;sensor_type;location;lat;lon;timestamp;pressure;altitude;pressure_sealevel;temperature;humidity
56992;BME280;42885;49.754;18.636;2023-02-28T00:00:16;99409.47;;;3.48;72.66
56992;BME280;42885;49.754;18.636;2023-02-28T00:03:06;99411.09;;;3.58;71.80
56992;BME280;42885;49.754;18.636;2023-02-28T00:05:56;99410.88;;;3.05;74.39
56992;BME280;42885;49.754;18.636;2023-02-28T00:08:45;99406.75;;;2.85;76.42
56992;BME280;42885;49.754;18.636;2023-02-28T00:11:35;99408.34;;;2.98;76.49
56992;BME280;42885;49.754;18.636;2023-02-28T00:14:25;99415.33;;;2.90;77.30
56992;BME280;42885;49.754;18.636;2023-02-28T00:17:15;99415.89;;;2.79;77.73
56992;BME280;42885;49.754;18.636;2023-02-28T00:20:07;99421.63;;;2.66;78.86
56992;BME280;42885;49.754;18.636;2023-02-28T00:22:58;99411.55;;;2.81;78.73
56992;BME280;42885;49.754;18.636;2023-02-28T00:25:48;99417.20;;;2.75;78.12
56992;BME280;42885;49.754;18.636;2023-02-28T00:28:37;99413.87;;;2.64;77.81
56992;BME280;42885;49.754;18.636;2023-02-28T00:31:27;99413.97;;;2.52;80.20
56992;BME280;42885;49.754;18.636;2023-02-28T00:34:17;99417.98;;;2.36;81.47
56992;BME280;42885;49.754;18.636;2023-02-28T00:37:07;99419.68;;;2.40;81.63
56992;BME280;42885;49.754;18.636;2023-02-28T00:39:57;99409.59;;;2.60;81.69
56992;BME280;42885;49.754;18.636;2023-02-28T00:42:48;99404.77;;;2.70;80.44
56992;BME280;42885;49.754;18.636;2023-02-28T00:45:38;99407.83;;;2.65;80.03
56992;BME280;42885;49.754;18.636;2023-02-28T00:48:28;99403.89;;;2.71;79.83
56992;BME280;42885;49.754;18.636;2023-02-28T00:51:18;99404.27;;;2.77;79.43
56992;BME280;42885;49.754;18.636;2023-02-28T00:54:07;99403.69;;;2.92;78.61
56992;BME280;42885;49.754;18.636;2023-02-28T00:56:56;99410.16;;;2.92;78.32
56992;BME280;42885;49.754;18.636;2023-02-28T00:59:46;99405.19;;;2.71;79.84
56992;BME280;42885;49.754;18.636;2023-02-28T01:02:34;99406.86;;;2.75;80.20
56992;BME280;42885;49.754;18.636;2023-02-28T01:05:24;99393.92;;;2.77;79.47
56992;BME280;42885;49.754;18.636;2023-02-28T01:08:14;99400.86;;;2.72;79.80
56992;BME280;42885;49.754;18.636;2023-02-28T01:11:10;99401.36;;;2.67;79.95
56992;BME280;42885;49.754;18.636;2023-02-28T01:14:00;99400.30;;;2.85;79.11
56992;BME280;42885;49.754;18.636;2023-02-28T01:16:50;99399.09;;;2.79;78.75
56992;BME280;42885;49.754;18.636;2023-02-28T01:19:40;99402.50;;;2.82;78.35
56992;BME280;42885;49.754;18.636;2023-02-28T01:22:31;99399.16;;;2.69;78.93
56992;BME280;42885;49.754;18.636;2023-02-28T01:25:20;99399.92;;;2.79;78.18
56992;BME280;42885;49.754;18.636;2023-02-28T01:28:09;99401.06;;;2.93;77.46
56992;BME280;42885;49.754;18.636;2023-02-28T01:30:58;99396.93;;;2.77;77.63
56992;BME280;42885;49.754;18.636;2023-02-28T01:33:47;99392.58;;;2.82;78.67
56992;BME280;42885;49.754;18.636;2023-02-28T01:36:36;99392.36;;;2.62;78.85
56992;BME280;42885;49.754;18.636;2023-02-28T01:39:26;99389.42;;;2.52;79.83
56992;BME280;42885;49.754;18.636;2023-02-28T01:42:17;99392.36;;;2.62;79.17
56992;BME280;42885;49.754;18.636;2023-02-28T01:45:29;99384.70;;;2.51;78.94
56992;BME280;42885;49.754;18.636;2023-02-28T01:48:21;99392.13;;;2.39;78.98
56992;BME280;42885;49.754;18.636;2023-02-28T01:51:13;99384.29;;;2.50;77.25
56992;BME280;42885;49.754;18.636;2023-02-28T01:54:07;99387.38;;;2.42;78.01
56992;BME280;42885;49.754;18.636;2023-02-28T01:57:13;99384.80;;;2.39;77.39
56992;BME280;42885;49.754;18.636;2023-02-28T02:00:03;99382.17;;;2.46;76.40
56992;BME280;42885;49.754;18.636;2023-02-28T02:03:07;99384.80;;;2.40;76.05
56992;BME280;42885;49.754;18.636;2023-02-28T02:05:51;99376.17;;;2.41;75.78
56992;BME280;42885;49.754;18.636;2023-02-28T02:08:41;99367.59;;;2.38;75.93
56992;BME280;42885;49.754;18.636;2023-02-28T02:11:30;99371.89;;;2.39;75.89
56992;BME280;42885;49.754;18.636;2023-02-28T02:14:32;99377.55;;;2.33;76.29
56992;BME280;42885;49.754;18.636;2023-02-28T02:17:41;99379.80;;;2.20;75.87
56992;BME280;42885;49.754;18.636;2023-02-28T02:24:13;99375.97;;;2.14;75.58
56992;BME280;42885;49.754;18.636;2023-02-28T02:30:59;99373.84;;;2.12;75.95
56992;BME280;42885;49.754;18.636;2023-02-28T02:34:09;99376.44;;;2.10;75.20
56992;BME280;42885;49.754;18.636;2023-02-28T02:37:24;99374.97;;;1.75;77.87
56992;BME280;42885;49.754;18.636;2023-02-28T02:40:19;99368.62;;;1.59;79.72
56992;BME280;42885;49.754;18.636;2023-02-28T02:43:13;99369.78;;;1.83;79.29
56992;BME280;42885;49.754;18.636;2023-02-28T02:46:04;99375.78;;;1.83;79.98
56992;BME280;42885;49.754;18.636;2023-02-28T02:48:55;99375.33;;;1.85;79.33
56992;BME280;42885;49.754;18.636;2023-02-28T02:51:47;99377.94;;;1.82;78.81
56992;BME280;42885;49.754;18.636;2023-02-28T02:54:40;99382.20;;;1.86;78.23
56992;BME280;42885;49.754;18.636;2023-02-28T02:57:36;99384.81;;;1.82;79.38
56992;BME280;42885;49.754;18.636;2023-02-28T03:00:25;99386.17;;;1.74;79.46
56992;BME280;42885;49.754;18.636;2023-02-28T03:03:13;99381.55;;;1.56;80.90
56992;BME280;42885;49.754;18.636;2023-02-28T03:06:03;99385.00;;;1.54;81.04
56992;BME280;42885;49.754;18.636;2023-02-28T03:08:55;99385.52;;;1.34;81.81
56992;BME280;42885;49.754;18.636;2023-02-28T03:11:44;99392.39;;;1.35;82.79
56992;BME280;42885;49.754;18.636;2023-02-28T03:17:42;99393.66;;;1.42;83.52
56992;BME280;42885;49.754;18.636;2023-02-28T03:20:37;99394.55;;;1.36;84.59
56992;BME280;42885;49.754;18.636;2023-02-28T03:23:34;99394.97;;;1.39;84.13
56992;BME280;42885;49.754;18.636;2023-02-28T03:26:24;99391.97;;;1.37;84.46
56992;BME280;42885;49.754;18.636;2023-02-28T03:29:23;99390.69;;;1.37;84.38
56992;BME280;42885;49.754;18.636;2023-02-28T03:35:22;99397.08;;;1.47;83.70
56992;BME280;42885;49.754;18.636;2023-02-28T03:38:33;99392.81;;;1.41;84.21
56992;BME280;42885;49.754;18.636;2023-02-28T03:41:43;99393.33;;;1.20;84.94
56992;BME280;42885;49.754;18.636;2023-02-28T03:44:40;99395.48;;;1.18;86.43
56992;BME280;42885;49.754;18.636;2023-02-28T03:47:32;99400.59;;;1.27;86.09
56992;BME280;42885;49.754;18.636;2023-02-28T03:50:44;99400.63;;;1.18;87.13
56992;BME280;42885;49.754;18.636;2023-02-28T03:53:31;99406.22;;;1.20;86.20
56992;BME280;42885;49.754;18.636;2023-02-28T03:56:27;99399.80;;;1.16;84.79
56992;BME280;42885;49.754;18.636;2023-02-28T03:59:22;99395.48;;;1.21;84.74
56992;BME280;42885;49.754;18.636;2023-02-28T04:02:10;99398.77;;;1.51;82.88
56992;BME280;42885;49.754;18.636;2023-02-28T04:05:00;99402.37;;;1.16;83.59
56992;BME280;42885;49.754;18.636;2023-02-28T04:07:50;99408.81;;;1.14;82.96
56992;BME280;42885;49.754;18.636;2023-02-28T04:10:41;99410.56;;;1.07;83.05
56992;BME280;42885;49.754;18.636;2023-02-28T04:13:32;99415.28;;;1.11;83.22
56992;BME280;42885;49.754;18.636;2023-02-28T04:16:20;99417.88;;;0.99;83.92
56992;BME280;42885;49.754;18.636;2023-02-28T04:19:11;99417.48;;;0.94;84.77
56992;BME280;42885;49.754;18.636;2023-02-28T04:22:01;99421.36;;;0.82;85.87
56992;BME280;42885;49.754;18.636;2023-02-28T04:24:51;99424.80;;;0.87;85.72
56992;BME280;42885;49.754;18.636;2023-02-28T04:27:41;99425.94;;;1.31;82.75
56992;BME280;42885;49.754;18.636;2023-02-28T04:30:33;99423.34;;;1.35;81.32
56992;BME280;42885;49.754;18.636;2023-02-28T04:33:23;99422.54;;;1.24;80.54
56992;BME280;42885;49.754;18.636;2023-02-28T04:36:12;99419.98;;;1.12;79.62
56992;BME280;42885;49.754;18.636;2023-02-28T04:39:03;99418.69;;;1.18;78.33
56992;BME280;42885;49.754;18.636;2023-02-28T04:41:52;99413.96;;;1.22;77.66
56992;BME280;42885;49.754;18.636;2023-02-28T04:44:40;99418.25;;;1.23;77.74
56992;BME280;42885;49.754;18.636;2023-02-28T04:47:30;99417.38;;;1.24;76.96
56992;BME280;42885;49.754;18.636;2023-02-28T04:50:20;99421.72;;;1.09;76.36
56992;BME280;42885;49.754;18.636;2023-02-28T04:53:09;99417.91;;;0.97;76.52
56992;BME280;42885;49.754;18.636;2023-02-28T04:55:58;99421.80;;;0.86;78.02
56992;BME280;42885;49.754;18.636;2023-02-28T04:58:49;99420.51;;;0.78;79.10
56992;BME280;42885;49.754;18.636;2023-02-28T05:01:39;99418.31;;;1.03;77.40
56992;BME280;42885;49.754;18.636;2023-02-28T05:04:28;99420.08;;;0.91;78.55
56992;BME280;42885;49.754;18.636;2023-02-28T05:07:17;99421.77;;;0.94;78.43
56992;BME280;42885;49.754;18.636;2023-02-28T05:10:07;99426.10;;;0.76;79.52
56992;BME280;42885;49.754;18.636;2023-02-28T05:12:56;99427.00;;;0.57;81.61
56992;BME280;42885;49.754;18.636;2023-02-28T05:15:45;99431.29;;;0.64;81.99
56992;BME280;42885;49.754;18.636;2023-02-28T05:18:35;99431.72;;;0.65;81.87
56992;BME280;42885;49.754;18.636;2023-02-28T05:21:33;99421.41;;;0.66;82.44
56992;BME280;42885;49.754;18.636;2023-02-28T05:24:20;99428.70;;;0.73;83.75
56992;BME280;42885;49.754;18.636;2023-02-28T05:27:11;99436.42;;;0.67;83.67
56992;BME280;42885;49.754;18.636;2023-02-28T05:30:01;99443.75;;;0.63;82.97
56992;BME280;42885;49.754;18.636;2023-02-28T05:32:52;99442.87;;;0.61;83.75
56992;BME280;42885;49.754;18.636;2023-02-28T05:35:41;99441.59;;;0.68;83.53
56992;BME280;42885;49.754;18.636;2023-02-28T05:38:32;99439.85;;;0.75;84.82
56992;BME280;42885;49.754;18.636;2023-02-28T05:41:22;99447.16;;;0.74;85.25
56992;BME280;42885;49.754;18.636;2023-02-28T05:44:12;99457.91;;;0.66;87.04
56992;BME280;42885;49.754;18.636;2023-02-28T05:47:02;99459.20;;;0.36;89.29
56992;BME280;42885;49.754;18.636;2023-02-28T05:49:51;99460.05;;;0.43;89.94
56992;BME280;42885;49.754;18.636;2023-02-28T05:52:40;99462.17;;;0.81;88.77
56992;BME280;42885;49.754;18.636;2023-02-28T05:55:30;99463.88;;;0.94;88.13
56992;BME280;42885;49.754;18.636;2023-02-28T05:58:19;99470.34;;;0.57;90.84
56992;BME280;42885;49.754;18.636;2023-02-28T06:01:31;99480.67;;;0.56;91.13
56992;BME280;42885;49.754;18.636;2023-02-28T06:04:21;99484.50;;;0.82;91.11
56992;BME280;42885;49.754;18.636;2023-02-28T06:07:12;99475.47;;;1.05;92.12
56992;BME280;42885;49.754;18.636;2023-02-28T06:10:02;99478.02;;;1.15;91.13
56992;BME280;42885;49.754;18.636;2023-02-28T06:12:52;99487.01;;;1.22;92.14
56992;BME280;42885;49.754;18.636;2023-02-28T06:15:41;99490.02;;;1.33;90.85
56992;BME280;42885;49.754;18.636;2023-02-28T06:18:31;99489.14;;;1.32;89.97
56992;BME280;42885;49.754;18.636;2023-02-28T06:21:20;99496.51;;;0.99;92.17
56992;BME280;42885;49.754;18.636;2023-02-28T06:24:10;99496.53;;;0.78;92.66
56992;BME280;42885;49.754;18.636;2023-02-28T06:26:59;99492.66;;;1.02;92.99
56992;BME280;42885;49.754;18.636;2023-02-28T06:29:53;99502.96;;;0.94;92.83
56992;BME280;42885;49.754;18.636;2023-02-28T06:32:39;99497.83;;;0.97;93.05
56992;BME280;42885;49.754;18.636;2023-02-28T06:35:28;99495.63;;;1.18;95.05
56992;BME280;42885;49.754;18.636;2023-02-28T06:38:17;99503.36;;;1.25;95.23
56992;BME280;42885;49.754;18.636;2023-02-28T06:41:06;99505.02;;;1.38;94.96
56992;BME280;42885;49.754;18.636;2023-02-28T06:43:56;99508.06;;;1.31;95.63
56992;BME280;42885;49.754;18.636;2023-02-28T06:46:45;99496.36;;;1.53;96.17
56992;BME280;42885;49.754;18.636;2023-02-28T06:49:35;99500.25;;;1.58;95.81
56992;BME280;42885;49.754;18.636;2023-02-28T06:52:25;99497.20;;;1.63;95.45
56992;BME280;42885;49.754;18.636;2023-02-28T06:55:14;99497.91;;;1.99;93.92
56992;BME280;42885;49.754;18.636;2023-02-28T06:58:03;99497.91;;;1.99;93.92
56992;BME280;42885;49.754;18.636;2023-02-28T07:00:54;99494.78;;;2.14;92.11
56992;BME280;42885;49.754;18.636;2023-02-28T07:03:43;99498.40;;;1.85;92.34
56992;BME280;42885;49.754;18.636;2023-02-28T07:06:33;99461.75;;;1.95;92.07
56992;BME280;42885;49.754;18.636;2023-02-28T07:09:23;99504.66;;;2.20;91.80
56992;BME280;42885;49.754;18.636;2023-02-28T07:12:13;99510.15;;;2.34;90.14
56992;BME280;42885;49.754;18.636;2023-02-28T07:15:02;99512.25;;;2.42;89.45
56992;BME280;42885;49.754;18.636;2023-02-28T07:17:51;99512.05;;;2.67;87.65
56992;BME280;42885;49.754;18.636;2023-02-28T07:20:42;99513.05;;;2.52;87.65
56992;BME280;42885;49.754;18.636;2023-02-28T07:23:31;99510.27;;;2.79;86.42
56992;BME280;42885;49.754;18.636;2023-02-28T07:26:20;99516.31;;;2.73;85.51
56992;BME280;42885;49.754;18.636;2023-02-28T07:29:10;99516.27;;;2.78;83.15
56992;BME280;42885;49.754;18.636;2023-02-28T07:31:58;99518.81;;;2.87;82.99
56992;BME280;42885;49.754;18.636;2023-02-28T07:34:48;99520.38;;;3.02;80.10
56992;BME280;42885;49.754;18.636;2023-02-28T07:37:38;99515.64;;;3.43;77.97
56992;BME280;42885;49.754;18.636;2023-02-28T07:40:30;99521.05;;;3.96;74.86
56992;BME280;42885;49.754;18.636;2023-02-28T07:43:19;99521.23;;;4.16;72.20
56992;BME280;42885;49.754;18.636;2023-02-28T07:46:11;99525.55;;;4.14;72.02
56992;BME280;42885;49.754;18.636;2023-02-28T07:49:01;99519.99;;;4.42;69.84
56992;BME280;42885;49.754;18.636;2023-02-28T07:51:51;99520.42;;;4.71;68.75
56992;BME280;42885;49.754;18.636;2023-02-28T07:54:40;99518.78;;;4.65;66.67
56992;BME280;42885;49.754;18.636;2023-02-28T07:57:29;99522.44;;;5.05;63.70
56992;BME280;42885;49.754;18.636;2023-02-28T08:00:19;99521.25;;;4.97;63.44
56992;BME280;42885;49.754;18.636;2023-02-28T08:03:16;99515.66;;;5.43;62.21
56992;BME280;42885;49.754;18.636;2023-02-28T08:06:01;99508.13;;;5.54;60.33
56992;BME280;42885;49.754;18.636;2023-02-28T08:08:51;99513.11;;;5.64;60.06
56992;BME280;42885;49.754;18.636;2023-02-28T08:11:41;99505.45;;;5.57;60.21
56992;BME280;42885;49.754;18.636;2023-02-28T08:14:31;99509.43;;;5.75;58.21
56992;BME280;42885;49.754;18.636;2023-02-28T08:17:20;99507.43;;;5.88;55.97
56992;BME280;42885;49.754;18.636;2023-02-28T08:20:10;99513.93;;;4.96;56.23
56992;BME280;42885;49.754;18.636;2023-02-28T08:22:59;99515.02;;;5.32;56.02
56992;BME280;42885;49.754;18.636;2023-02-28T08:25:55;99513.32;;;5.54;54.98
56992;BME280;42885;49.754;18.636;2023-02-28T08:28:44;99519.78;;;5.32;55.41
56992;BME280;42885;49.754;18.636;2023-02-28T08:31:33;99516.84;;;5.49;54.34
56992;BME280;42885;49.754;18.636;2023-02-28T08:34:23;99514.11;;;5.10;55.09
56992;BME280;42885;49.754;18.636;2023-02-28T08:37:12;99518.42;;;4.85;55.50
56992;BME280;42885;49.754;18.636;2023-02-28T08:40:00;99525.84;;;5.08;55.23
56992;BME280;42885;49.754;18.636;2023-02-28T08:42:50;99528.28;;;5.41;54.59
56992;BME280;42885;49.754;18.636;2023-02-28T08:45:38;99527.80;;;4.94;55.76
56992;BME280;42885;49.754;18.636;2023-02-28T08:48:32;99524.04;;;5.35;54.62
56992;BME280;42885;49.754;18.636;2023-02-28T08:51:22;99513.85;;;5.70;54.47
56992;BME280;42885;49.754;18.636;2023-02-28T08:54:12;99527.00;;;5.39;53.95
56992;BME280;42885;49.754;18.636;2023-02-28T08:57:03;99520.02;;;5.18;53.41
56992;BME280;42885;49.754;18.636;2023-02-28T08:59:52;99514.21;;;5.53;52.56
56992;BME280;42885;49.754;18.636;2023-02-28T09:02:42;99509.95;;;5.91;51.82
56992;BME280;42885;49.754;18.636;2023-02-28T09:05:31;99512.05;;;6.16;51.31
56992;BME280;42885;49.754;18.636;2023-02-28T09:08:21;99512.06;;;5.50;49.67
56992;BME280;42885;49.754;18.636;2023-02-28T09:11:11;99516.03;;;5.47;50.70
56992;BME280;42885;49.754;18.636;2023-02-28T09:14:01;99515.60;;;5.48;50.20
56992;BME280;42885;49.754;18.636;2023-02-28T09:16:51;99515.44;;;5.56;48.98
56992;BME280;42885;49.754;18.636;2023-02-28T09:19:41;99517.09;;;5.13;50.24
56992;BME280;42885;49.754;18.636;2023-02-28T09:22:31;99523.19;;;4.86;50.52
56992;BME280;42885;49.754;18.636;2023-02-28T09:25:20;99515.55;;;5.02;50.58
56992;BME280;42885;49.754;18.636;2023-02-28T09:28:10;99518.79;;;5.40;49.33
56992;BME280;42885;49.754;18.636;2023-02-28T09:30:59;99519.14;;;5.65;48.99
56992;BME280;42885;49.754;18.636;2023-02-28T09:33:52;99514.14;;;5.77;48.77
56992;BME280;42885;49.754;18.636;2023-02-28T09:36:41;99516.73;;;5.33;49.51
56992;BME280;42885;49.754;18.636;2023-02-28T09:39:30;99509.26;;;5.83;48.16
56992;BME280;42885;49.754;18.636;2023-02-28T09:42:21;99508.87;;;6.03;48.30
56992;BME280;42885;49.754;18.636;2023-02-28T09:45:24;99517.70;;;5.73;48.90
56992;BME280;42885;49.754;18.636;2023-02-28T09:48:23;99517.84;;;5.42;48.88
56992;BME280;42885;49.754;18.636;2023-02-28T09:54:33;99513.91;;;5.89;47.42
56992;BME280;42885;49.754;18.636;2023-02-28T09:57:33;99509.64;;;6.26;48.06
56992;BME280;42885;49.754;18.636;2023-02-28T10:00:29;99511.04;;;6.59;47.11
56992;BME280;42885;49.754;18.636;2023-02-28T10:03:37;99520.67;;;6.38;47.21
56992;BME280;42885;49.754;18.636;2023-02-28T10:06:33;99521.20;;;7.05;46.38
56992;BME280;42885;49.754;18.636;2023-02-28T10:09:29;99514.28;;;6.33;46.16
56992;BME280;42885;49.754;18.636;2023-02-28T10:12:13;99516.91;;;6.68;47.76
56992;BME280;42885;49.754;18.636;2023-02-28T10:15:04;99511.25;;;6.70;46.04
56992;BME280;42885;49.754;18.636;2023-02-28T10:17:57;99505.58;;;6.88;45.91
56992;BME280;42885;49.754;18.636;2023-02-28T10:20:45;99504.13;;;7.28;45.66
56992;BME280;42885;49.754;18.636;2023-02-28T10:23:36;99510.14;;;6.97;45.65
56992;BME280;42885;49.754;18.636;2023-02-28T10:26:28;99514.58;;;7.10;45.87
56992;BME280;42885;49.754;18.636;2023-02-28T10:29:19;99508.79;;;6.82;45.65
56992;BME280;42885;49.754;18.636;2023-02-28T10:32:10;99506.48;;;6.87;46.01
56992;BME280;42885;49.754;18.636;2023-02-28T10:35:15;99498.52;;;7.27;44.91
56992;BME280;42885;49.754;18.636;2023-02-28T10:38:03;99499.64;;;7.00;44.37
56992;BME280;42885;49.754;18.636;2023-02-28T10:41:05;99497.78;;;7.05;44.97
56992;BME280;42885;49.754;18.636;2023-02-28T10:44:15;99497.86;;;7.35;44.54
56992;BME280;42885;49.754;18.636;2023-02-28T10:47:08;99495.55;;;6.73;44.86
56992;BME280;42885;49.754;18.636;2023-02-28T10:49:55;99487.73;;;6.91;45.18
56992;BME280;42885;49.754;18.636;2023-02-28T10:52:44;99481.41;;;7.16;44.94
56992;BME280;42885;49.754;18.636;2023-02-28T10:55:33;99476.91;;;6.73;44.70
56992;BME280;42885;49.754;18.636;2023-02-28T10:58:24;99475.25;;;7.21;44.97
56992;BME280;42885;49.754;18.636;2023-02-28T11:01:25;99465.81;;;7.93;44.53
56992;BME280;42885;49.754;18.636;2023-02-28T11:07:22;99462.13;;;8.14;43.38
56992;BME280;42885;49.754;18.636;2023-02-28T11:10:17;99459.13;;;10.13;40.85
56992;BME280;42885;49.754;18.636;2023-02-28T11:13:03;99451.20;;;12.09;36.32
56992;BME280;42885;49.754;18.636;2023-02-28T11:16:00;99452.89;;;12.64;35.74
56992;BME280;42885;49.754;18.636;2023-02-28T11:18:56;99452.97;;;12.54;34.55
56992;BME280;42885;49.754;18.636;2023-02-28T11:21:56;99439.48;;;13.22;34.31
56992;BME280;42885;49.754;18.636;2023-02-28T11:24:47;99436.09;;;13.11;34.05
56992;BME280;42885;49.754;18.636;2023-02-28T11:30:36;99432.61;;;12.14;34.54
56992;BME280;42885;49.754;18.636;2023-02-28T11:33:31;99428.45;;;12.98;34.10
56992;BME280;42885;49.754;18.636;2023-02-28T11:39:16;99431.72;;;13.94;32.97
56992;BME280;42885;49.754;18.636;2023-02-28T11:42:19;99421.59;;;13.79;32.46
56992;BME280;42885;49.754;18.636;2023-02-28T11:48:27;99423.23;;;13.56;32.35
56992;BME280;42885;49.754;18.636;2023-02-28T11:51:34;99427.51;;;13.98;31.61
56992;BME280;42885;49.754;18.636;2023-02-28T11:58:02;99433.52;;;14.33;31.50
56992;BME280;42885;49.754;18.636;2023-02-28T12:00:58;99422.06;;;14.48;31.69
56992;BME280;42885;49.754;18.636;2023-02-28T12:07:32;99420.86;;;13.52;31.48
56992;BME280;42885;49.754;18.636;2023-02-28T12:10:34;99422.64;;;14.77;30.96
56992;BME280;42885;49.754;18.636;2023-02-28T12:13:42;99420.81;;;14.70;30.58
56992;BME280;42885;49.754;18.636;2023-02-28T12:20:13;99417.59;;;14.65;30.85
56992;BME280;42885;49.754;18.636;2023-02-28T12:29:28;99403.34;;;16.33;29.16
56992;BME280;42885;49.754;18.636;2023-02-28T12:35:22;99399.09;;;16.50;29.12
56992;BME280;42885;49.754;18.636;2023-02-28T12:38:24;99396.39;;;16.45;28.70
56992;BME280;42885;49.754;18.636;2023-02-28T12:42:01;99391.28;;;15.66;29.15
56992;BME280;42885;49.754;18.636;2023-02-28T12:44:15;99398.15;;;16.31;29.02
56992;BME280;42885;49.754;18.636;2023-02-28T12:47:17;99394.06;;;15.07;29.86
56992;BME280;42885;49.754;18.636;2023-02-28T12:50:07;99401.12;;;15.43;29.62
56992;BME280;42885;49.754;18.636;2023-02-28T12:53:06;99394.06;;;14.99;29.16
56992;BME280;42885;49.754;18.636;2023-02-28T12:56:11;99403.00;;;14.97;30.40
56992;BME280;42885;49.754;18.636;2023-02-28T12:59:22;99395.41;;;15.71;29.73
56992;BME280;42885;49.754;18.636;2023-02-28T13:05:18;99391.02;;;15.57;29.70
56992;BME280;42885;49.754;18.636;2023-02-28T13:11:33;99386.23;;;15.91;28.98
56992;BME280;42885;49.754;18.636;2023-02-28T13:17:18;99392.28;;;14.93;29.36
56992;BME280;42885;49.754;18.636;2023-02-28T13:20:47;99379.57;;;15.28;29.71
56992;BME280;42885;49.754;18.636;2023-02-28T13:23:16;99382.91;;;14.72;30.05
56992;BME280;42885;49.754;18.636;2023-02-28T13:25:56;99386.25;;;15.12;29.83
56992;BME280;42885;49.754;18.636;2023-02-28T13:28:57;99379.37;;;15.24;28.54
56992;BME280;42885;49.754;18.636;2023-02-28T13:37:54;99375.78;;;15.40;29.01
56992;BME280;42885;49.754;18.636;2023-02-28T13:40:42;99368.63;;;17.54;30.38
56992;BME280;42885;49.754;18.636;2023-02-28T13:49:41;99366.45;;;15.41;29.80
56992;BME280;42885;49.754;18.636;2023-02-28T13:52:30;99367.04;;;14.96;30.09
56992;BME280;42885;49.754;18.636;2023-02-28T14:01:48;99360.13;;;16.14;29.02
56992;BME280;42885;49.754;18.636;2023-02-28T14:04:59;99355.19;;;16.22;29.55
56992;BME280;42885;49.754;18.636;2023-02-28T14:07:56;99357.66;;;15.55;29.65
56992;BME280;42885;49.754;18.636;2023-02-28T14:10:49;99353.16;;;14.63;29.92
56992;BME280;42885;49.754;18.636;2023-02-28T14:16:40;99354.10;;;11.44;34.58
56992;BME280;42885;49.754;18.636;2023-02-28T14:19:32;99366.50;;;9.74;37.29
56992;BME280;42885;49.754;18.636;2023-02-28T14:22:48;99366.10;;;9.51;38.69
56992;BME280;42885;49.754;18.636;2023-02-28T14:28:45;99368.28;;;8.66;39.93
56992;BME280;42885;49.754;18.636;2023-02-28T14:31:44;99366.02;;;8.69;39.88
56992;BME280;42885;49.754;18.636;2023-02-28T14:34:57;99368.63;;;8.42;40.32
56992;BME280;42885;49.754;18.636;2023-02-28T14:37:41;99363.40;;;8.30;40.69
56992;BME280;42885;49.754;18.636;2023-02-28T14:40:34;99361.63;;;7.90;41.06
56992;BME280;42885;49.754;18.636;2023-02-28T14:43:25;99359.63;;;7.98;41.47
56992;BME280;42885;49.754;18.636;2023-02-28T14:46:14;99359.85;;;7.49;42.62
56992;BME280;42885;49.754;18.636;2023-02-28T14:49:05;99364.09;;;7.66;42.48
56992;BME280;42885;49.754;18.636;2023-02-28T14:55:10;99361.70;;;7.60;42.62
56992;BME280;42885;49.754;18.636;2023-02-28T14:58:17;99365.72;;;7.70;42.20
56992;BME280;42885;49.754;18.636;2023-02-28T15:00:54;99373.61;;;7.67;42.80
56992;BME280;42885;49.754;18.636;2023-02-28T15:03:44;99370.82;;;7.60;42.68
56992;BME280;42885;49.754;18.636;2023-02-28T15:06:35;99377.16;;;7.36;42.92
56992;BME280;42885;49.754;18.636;2023-02-28T15:09:25;99374.20;;;7.34;42.95
56992;BME280;42885;49.754;18.636;2023-02-28T15:12:15;99373.91;;;7.13;43.10
56992;BME280;42885;49.754;18.636;2023-02-28T15:15:04;99372.94;;;7.17;43.39
56992;BME280;42885;49.754;18.636;2023-02-28T15:17:57;99373.36;;;6.86;43.51
56992;BME280;42885;49.754;18.636;2023-02-28T15:20:47;99366.96;;;6.98;44.46
56992;BME280;42885;49.754;18.636;2023-02-28T15:23:39;99370.53;;;7.09;44.46
56992;BME280;42885;49.754;18.636;2023-02-28T15:26:32;99369.33;;;7.06;44.77
56992;BME280;42885;49.754;18.636;2023-02-28T15:29:24;99372.71;;;6.78;44.03
56992;BME280;42885;49.754;18.636;2023-02-28T15:32:30;99369.87;;;6.71;44.64
56992;BME280;42885;49.754;18.636;2023-02-28T15:35:28;99374.60;;;6.71;44.67
56992;BME280;42885;49.754;18.636;2023-02-28T15:38:25;99372.50;;;6.69;45.05
56992;BME280;42885;49.754;18.636;2023-02-28T15:41:28;99366.98;;;6.65;45.29
56992;BME280;42885;49.754;18.636;2023-02-28T15:44:29;99370.30;;;6.54;45.48
56992;BME280;42885;49.754;18.636;2023-02-28T15:47:20;99368.41;;;6.44;45.46
56992;BME280;42885;49.754;18.636;2023-02-28T15:50:12;99373.24;;;6.23;45.95
56992;BME280;42885;49.754;18.636;2023-02-28T15:53:03;99380.14;;;6.24;46.51
56992;BME280;42885;49.754;18.636;2023-02-28T15:55:55;99376.84;;;6.36;46.49
56992;BME280;42885;49.754;18.636;2023-02-28T15:58:45;99377.28;;;6.35;46.51
56992;BME280;42885;49.754;18.636;2023-02-28T16:01:36;99382.80;;;6.23;46.97
56992;BME280;42885;49.754;18.636;2023-02-28T16:04:26;99379.62;;;6.28;47.47
56992;BME280;42885;49.754;18.636;2023-02-28T16:07:16;99378.41;;;6.06;47.66
56992;BME280;42885;49.754;18.636;2023-02-28T16:10:08;99380.89;;;6.11;48.04
56992;BME280;42885;49.754;18.636;2023-02-28T16:12:58;99385.25;;;6.11;47.71
56992;BME280;42885;49.754;18.636;2023-02-28T16:15:48;99386.77;;;6.00;48.16
56992;BME280;42885;49.754;18.636;2023-02-28T16:18:39;99393.08;;;5.89;48.49
56992;BME280;42885;49.754;18.636;2023-02-28T16:21:28;99388.91;;;5.82;48.97
56992;BME280;42885;49.754;18.636;2023-02-28T16:24:18;99386.69;;;5.65;48.74
56992;BME280;42885;49.754;18.636;2023-02-28T16:27:20;99386.77;;;5.62;49.51
56992;BME280;42885;49.754;18.636;2023-02-28T16:30:21;99388.92;;;6.20;51.55
56992;BME280;42885;49.754;18.636;2023-02-28T16:33:01;99386.12;;;6.10;48.96
56992;BME280;42885;49.754;18.636;2023-02-28T16:35:51;99393.94;;;5.70;49.11
56992;BME280;42885;49.754;18.636;2023-02-28T16:38:41;99392.48;;;5.76;49.31